sensor_id;sensor_type;location;lat;lon;timestamp;P1;durP1;ratioP1;P2;durP2;ratioP2
10637;SDS011;47007;49.252;8.904;2023-09-18T00:00:05;1.75;;;1.55;;
10637;SDS011;47007;49.252;8.904;2023-09-18T00:00:53;2.00;;;1.80;;
10637;SDS011;47007;49.252;8.904;2023-09-18T00:01:36;2.22;;;2.13;;
10637;SDS011;47007;49.252;8.904;2023-09-18T00:02:20;2.13;;;1.92;;
10637;SDS011;47007;49.252;8.904;2023-09-18T00:03:02;2.60;;;2.40;;
10637;SDS011;47007;49.252;8.904;2023-09-18T00:03:45;2.00;;;1.80;;
10637;SDS011;47007;49.252;8.904;2023-09-18T00:04:26;2.22;;;2.00;;
10637;SDS011;47007;49.252;8.904;2023-09-18T00:05:08;2.35;;;2.10;;
10637;SDS011;47007;49.252;8.904;2023-09-18T00:05:51;2.00;;;1.90;;
10637;SDS011;47007;49.252;8.904;2023-09-18T00:06:34;1.95;;;1.85;;
10637;SDS011;47007;49.252;8.904;2023-09-18T00:07:15;2.40;;;2.22;;
10637;SDS011;47007;49.252;8.904;2023-09-18T00:07:57;2.20;;;2.10;;
10637;SDS011;47007;49.252;8.904;2023-09-18T00:08:39;2.28;;;1.88;;
10637;SDS011;47007;49.252;8.904;2023-09-18T00:09:21;2.40;;;2.20;;
10637;SDS011;47007;49.252;8.904;2023-09-18T00:10:03;2.97;;;1.95;;
10637;SDS011;47007;49.252;8.904;2023-09-18T00:10:48;2.20;;;2.00;;
10637;SDS011;47007;49.252;8.904;2023-09-18T00:11:33;2.05;;;1.85;;
10637;SDS011;47007;49.252;8.904;2023-09-18T00:12:16;2.42;;;2.20;;
10637;SDS011;47007;49.252;8.904;2023-09-18T00:12:58;2.20;;;2.00;;
10637;SDS011;47007;49.252;8.904;2023-09-18T00:13:40;2.63;;;2.05;;
10637;SDS011;47007;49.252;8.904;2023-09-18T00:14:21;3.92;;;2.17;;
10637;SDS011;47007;49.252;8.904;2023-09-18T00:15:04;2.38;;;2.03;;
10637;SDS011;47007;49.252;8.904;2023-09-18T00:15:46;2.00;;;1.90;;
10637;SDS011;47007;49.252;8.904;2023-09-18T00:16:30;2.00;;;1.90;;
10637;SDS011;47007;49.252;8.904;2023-09-18T00:17:32;2.60;;;2.20;;
10637;SDS011;47007;49.252;8.904;2023-09-18T00:18:14;1.88;;;1.77;;
10637;SDS011;47007;49.252;8.904;2023-09-18T00:18:57;3.22;;;2.10;;
10637;SDS011;47007;49.252;8.904;2023-09-18T00:19:39;2.75;;;2.22;;
10637;SDS011;47007;49.252;8.904;2023-09-18T00:20:21;1.92;;;1.80;;
10637;SDS011;47007;49.252;8.904;2023-09-18T00:21:08;2.95;;;2.10;;
10637;SDS011;47007;49.252;8.904;2023-09-18T00:21:51;2.22;;;2.03;;
10637;SDS011;47007;49.252;8.904;2023-09-18T00:22:34;2.03;;;1.80;;
10637;SDS011;47007;49.252;8.904;2023-09-18T00:23:16;2.42;;;2.00;;
10637;SDS011;47007;49.252;8.904;2023-09-18T00:23:58;3.17;;;2.35;;
10637;SDS011;47007;49.252;8.904;2023-09-18T00:24:40;1.63;;;1.58;;
10637;SDS011;47007;49.252;8.904;2023-09-18T00:25:22;2.33;;;2.13;;
10637;SDS011;47007;49.252;8.904;2023-09-18T00:26:04;2.85;;;2.35;;
10637;SDS011;47007;49.252;8.904;2023-09-18T00:26:47;2.22;;;2.03;;
10637;SDS011;47007;49.252;8.904;2023-09-18T00:27:29;2.00;;;1.90;;
10637;SDS011;47007;49.252;8.904;2023-09-18T00:28:11;2.35;;;2.10;;
10637;SDS011;47007;49.252;8.904;2023-09-18T00:28:53;2.05;;;1.95;;
10637;SDS011;47007;49.252;8.904;2023-09-18T00:29:35;1.70;;;1.60;;
10637;SDS011;47007;49.252;8.904;2023-09-18T00:30:17;2.30;;;2.20;;
10637;SDS011;47007;49.252;8.904;2023-09-18T00:30:59;2.47;;;2.28;;
10637;SDS011;47007;49.252;8.904;2023-09-18T00:31:41;1.98;;;1.88;;
10637;SDS011;47007;49.252;8.904;2023-09-18T00:32:24;1.95;;;1.80;;
10637;SDS011;47007;49.252;8.904;2023-09-18T00:33:06;1.92;;;1.83;;
10637;SDS011;47007;49.252;8.904;2023-09-18T00:33:48;1.95;;;1.85;;
10637;SDS011;47007;49.252;8.904;2023-09-18T00:34:29;1.80;;;1.70;;
10637;SDS011;47007;49.252;8.904;2023-09-18T00:35:16;2.03;;;1.92;;
10637;SDS011;47007;49.252;8.904;2023-09-18T00:35:59;2.67;;;2.53;;
10637;SDS011;47007;49.252;8.904;2023-09-18T00:36:40;2.28;;;2.17;;
10637;SDS011;47007;49.252;8.904;2023-09-18T00:37:22;3.42;;;2.08;;
10637;SDS011;47007;49.252;8.904;2023-09-18T00:38:04;2.65;;;2.30;;
10637;SDS011;47007;49.252;8.904;2023-09-18T00:38:48;2.17;;;2.05;;
10637;SDS011;47007;49.252;8.904;2023-09-18T00:39:31;2.45;;;2.25;;
10637;SDS011;47007;49.252;8.904;2023-09-18T00:40:13;1.90;;;1.80;;
10637;SDS011;47007;49.252;8.904;2023-09-18T00:40:55;2.58;;;2.20;;
10637;SDS011;47007;49.252;8.904;2023-09-18T00:41:38;3.70;;;1.80;;
10637;SDS011;47007;49.252;8.904;2023-09-18T00:42:19;2.17;;;2.03;;
10637;SDS011;47007;49.252;8.904;2023-09-18T00:43:04;1.90;;;1.80;;
10637;SDS011;47007;49.252;8.904;2023-09-18T00:43:45;2.00;;;1.90;;
10637;SDS011;47007;49.252;8.904;2023-09-18T00:44:27;2.30;;;2.10;;
10637;SDS011;47007;49.252;8.904;2023-09-18T00:45:09;2.60;;;1.90;;
10637;SDS011;47007;49.252;8.904;2023-09-18T00:45:51;2.78;;;2.25;;
10637;SDS011;47007;49.252;8.904;2023-09-18T00:46:33;2.35;;;2.25;;
10637;SDS011;47007;49.252;8.904;2023-09-18T00:47:16;2.72;;;2.33;;
10637;SDS011;47007;49.252;8.904;2023-09-18T00:47:58;2.28;;;2.08;;
10637;SDS011;47007;49.252;8.904;2023-09-18T00:48:40;2.10;;;2.00;;
10637;SDS011;47007;49.252;8.904;2023-09-18T00:49:22;2.42;;;2.22;;
10637;SDS011;47007;49.252;8.904;2023-09-18T00:50:05;1.85;;;1.75;;
10637;SDS011;47007;49.252;8.904;2023-09-18T00:50:52;4.85;;;2.58;;
10637;SDS011;47007;49.252;8.904;2023-09-18T00:51:34;2.13;;;2.00;;
10637;SDS011;47007;49.252;8.904;2023-09-18T00:52:16;2.10;;;1.90;;
10637;SDS011;47007;49.252;8.904;2023-09-18T00:52:59;2.40;;;2.17;;
10637;SDS011;47007;49.252;8.904;2023-09-18T00:53:43;2.13;;;2.03;;
10637;SDS011;47007;49.252;8.904;2023-09-18T00:54:29;2.25;;;2.05;;
10637;SDS011;47007;49.252;8.904;2023-09-18T00:55:12;3.63;;;2.10;;
10637;SDS011;47007;49.252;8.904;2023-09-18T00:55:55;2.15;;;2.05;;
10637;SDS011;47007;49.252;8.904;2023-09-18T00:56:39;2.47;;;2.22;;
10637;SDS011;47007;49.252;8.904;2023-09-18T00:57:21;2.60;;;2.40;;
10637;SDS011;47007;49.252;8.904;2023-09-18T00:58:03;2.38;;;2.17;;
10637;SDS011;47007;49.252;8.904;2023-09-18T00:58:46;2.20;;;2.10;;
10637;SDS011;47007;49.252;8.904;2023-09-18T00:59:28;2.50;;;2.30;;
10637;SDS011;47007;49.252;8.904;2023-09-18T01:00:11;2.33;;;2.13;;
10637;SDS011;47007;49.252;8.904;2023-09-18T01:00:56;3.88;;;2.20;;
10637;SDS011;47007;49.252;8.904;2023-09-18T01:01:40;2.63;;;2.42;;
10637;SDS011;47007;49.252;8.904;2023-09-18T01:02:23;1.98;;;1.88;;
10637;SDS011;47007;49.252;8.904;2023-09-18T01:03:05;2.20;;;2.10;;
10637;SDS011;47007;49.252;8.904;2023-09-18T01:03:49;2.22;;;2.10;;
10637;SDS011;47007;49.252;8.904;2023-09-18T01:04:33;2.72;;;2.53;;
10637;SDS011;47007;49.252;8.904;2023-09-18T01:05:16;2.30;;;2.10;;
10637;SDS011;47007;49.252;8.904;2023-09-18T01:05:58;3.22;;;2.28;;
10637;SDS011;47007;49.252;8.904;2023-09-18T01:06:40;2.78;;;2.45;;
10637;SDS011;47007;49.252;8.904;2023-09-18T01:07:22;2.05;;;1.88;;
10637;SDS011;47007;49.252;8.904;2023-09-18T01:08:04;2.28;;;2.17;;
10637;SDS011;47007;49.252;8.904;2023-09-18T01:08:47;2.35;;;2.15;;
10637;SDS011;47007;49.252;8.904;2023-09-18T01:09:32;1.90;;;1.80;;
10637;SDS011;47007;49.252;8.904;2023-09-18T01:10:16;3.85;;;2.28;;
10637;SDS011;47007;49.252;8.904;2023-09-18T01:13:10;2.60;;;2.40;;
10637;SDS011;47007;49.252;8.904;2023-09-18T01:13:59;2.47;;;2.30;;
10637;SDS011;47007;49.252;8.904;2023-09-18T01:15:43;2.28;;;2.00;;
10637;SDS011;47007;49.252;8.904;2023-09-18T01:16:34;2.53;;;2.25;;
10637;SDS011;47007;49.252;8.904;2023-09-18T01:17:21;2.30;;;2.10;;
10637;SDS011;47007;49.252;8.904;2023-09-18T01:18:04;2.40;;;2.20;;
10637;SDS011;47007;49.252;8.904;2023-09-18T01:18:50;2.53;;;2.28;;
10637;SDS011;47007;49.252;8.904;2023-09-18T01:20:21;2.10;;;2.00;;
10637;SDS011;47007;49.252;8.904;2023-09-18T01:21:03;2.08;;;1.98;;
10637;SDS011;47007;49.252;8.904;2023-09-18T01:21:45;2.30;;;2.10;;
10637;SDS011;47007;49.252;8.904;2023-09-18T01:22:30;2.20;;;2.10;;
10637;SDS011;47007;49.252;8.904;2023-09-18T01:23:12;2.00;;;1.80;;
10637;SDS011;47007;49.252;8.904;2023-09-18T01:23:55;1.92;;;1.83;;
10637;SDS011;47007;49.252;8.904;2023-09-18T01:24:37;1.98;;;1.88;;
10637;SDS011;47007;49.252;8.904;2023-09-18T01:25:20;2.10;;;2.00;;
10637;SDS011;47007;49.252;8.904;2023-09-18T01:26:02;2.38;;;2.10;;
10637;SDS011;47007;49.252;8.904;2023-09-18T01:26:44;2.33;;;2.15;;
10637;SDS011;47007;49.252;8.904;2023-09-18T01:27:26;2.00;;;1.90;;
10637;SDS011;47007;49.252;8.904;2023-09-18T01:28:08;2.30;;;2.00;;
10637;SDS011;47007;49.252;8.904;2023-09-18T01:28:49;2.55;;;2.35;;
10637;SDS011;47007;49.252;8.904;2023-09-18T01:29:31;2.53;;;2.33;;
10637;SDS011;47007;49.252;8.904;2023-09-18T01:30:14;1.92;;;1.80;;
10637;SDS011;47007;49.252;8.904;2023-09-18T01:30:57;2.13;;;2.03;;
10637;SDS011;47007;49.252;8.904;2023-09-18T01:31:39;2.00;;;1.90;;
10637;SDS011;47007;49.252;8.904;2023-09-18T01:32:23;2.05;;;1.88;;
10637;SDS011;47007;49.252;8.904;2023-09-18T01:33:08;2.00;;;1.80;;
10637;SDS011;47007;49.252;8.904;2023-09-18T01:33:52;2.35;;;2.13;;
10637;SDS011;47007;49.252;8.904;2023-09-18T01:34:35;2.08;;;1.98;;
10637;SDS011;47007;49.252;8.904;2023-09-18T01:35:21;2.22;;;2.08;;
10637;SDS011;47007;49.252;8.904;2023-09-18T01:36:10;1.70;;;1.60;;
10637;SDS011;47007;49.252;8.904;2023-09-18T01:36:53;2.25;;;1.73;;
10637;SDS011;47007;49.252;8.904;2023-09-18T01:37:38;2.97;;;2.13;;
10637;SDS011;47007;49.252;8.904;2023-09-18T01:38:22;2.45;;;2.35;;
10637;SDS011;47007;49.252;8.904;2023-09-18T01:39:05;3.25;;;2.00;;
10637;SDS011;47007;49.252;8.904;2023-09-18T01:39:48;2.30;;;2.10;;
10637;SDS011;47007;49.252;8.904;2023-09-18T01:40:32;2.40;;;2.20;;
10637;SDS011;47007;49.252;8.904;2023-09-18T01:41:14;2.13;;;2.00;;
10637;SDS011;47007;49.252;8.904;2023-09-18T01:41:58;2.17;;;2.00;;
10637;SDS011;47007;49.252;8.904;2023-09-18T01:42:40;2.33;;;2.10;;
10637;SDS011;47007;49.252;8.904;2023-09-18T01:43:23;2.05;;;1.90;;
10637;SDS011;47007;49.252;8.904;2023-09-18T01:44:06;2.95;;;2.03;;
10637;SDS011;47007;49.252;8.904;2023-09-18T01:44:48;2.10;;;2.00;;
10637;SDS011;47007;49.252;8.904;2023-09-18T01:45:30;1.95;;;1.85;;
10637;SDS011;47007;49.252;8.904;2023-09-18T01:46:13;2.35;;;2.25;;
10637;SDS011;47007;49.252;8.904;2023-09-18T01:46:56;1.92;;;1.83;;
10637;SDS011;47007;49.252;8.904;2023-09-18T01:47:39;1.85;;;1.75;;
10637;SDS011;47007;49.252;8.904;2023-09-18T01:48:21;1.80;;;1.70;;
10637;SDS011;47007;49.252;8.904;2023-09-18T01:49:03;2.30;;;2.10;;
10637;SDS011;47007;49.252;8.904;2023-09-18T01:49:45;2.83;;;1.85;;
10637;SDS011;47007;49.252;8.904;2023-09-18T01:50:27;2.38;;;2.17;;
10637;SDS011;47007;49.252;8.904;2023-09-18T01:51:09;2.20;;;2.00;;
10637;SDS011;47007;49.252;8.904;2023-09-18T01:51:55;1.70;;;1.60;;
10637;SDS011;47007;49.252;8.904;2023-09-18T01:52:38;2.10;;;1.95;;
10637;SDS011;47007;49.252;8.904;2023-09-18T01:53:19;2.00;;;1.90;;
10637;SDS011;47007;49.252;8.904;2023-09-18T01:54:01;1.88;;;1.77;;
10637;SDS011;47007;49.252;8.904;2023-09-18T01:54:43;3.00;;;2.20;;
10637;SDS011;47007;49.252;8.904;2023-09-18T01:55:26;1.88;;;1.77;;
10637;SDS011;47007;49.252;8.904;2023-09-18T01:56:07;2.17;;;2.00;;
10637;SDS011;47007;49.252;8.904;2023-09-18T01:56:49;2.47;;;2.00;;
10637;SDS011;47007;49.252;8.904;2023-09-18T01:57:31;2.78;;;2.00;;
10637;SDS011;47007;49.252;8.904;2023-09-18T01:58:13;2.33;;;2.13;;
10637;SDS011;47007;49.252;8.904;2023-09-18T01:58:57;3.30;;;1.90;;
10637;SDS011;47007;49.252;8.904;2023-09-18T01:59:40;2.00;;;1.90;;
10637;SDS011;47007;49.252;8.904;2023-09-18T02:00:23;2.00;;;1.90;;
10637;SDS011;47007;49.252;8.904;2023-09-18T02:01:07;2.67;;;2.20;;
10637;SDS011;47007;49.252;8.904;2023-09-18T02:01:50;2.35;;;2.15;;
10637;SDS011;47007;49.252;8.904;2023-09-18T02:02:33;2.50;;;2.03;;
10637;SDS011;47007;49.252;8.904;2023-09-18T02:03:36;1.90;;;1.80;;
10637;SDS011;47007;49.252;8.904;2023-09-18T02:04:43;2.17;;;2.03;;
10637;SDS011;47007;49.252;8.904;2023-09-18T02:05:46;2.25;;;2.03;;
10637;SDS011;47007;49.252;8.904;2023-09-18T02:06:28;2.40;;;2.20;;
10637;SDS011;47007;49.252;8.904;2023-09-18T02:07:11;2.35;;;2.15;;
10637;SDS011;47007;49.252;8.904;2023-09-18T02:07:53;2.28;;;2.10;;
10637;SDS011;47007;49.252;8.904;2023-09-18T02:08:34;2.15;;;2.05;;
10637;SDS011;47007;49.252;8.904;2023-09-18T02:09:17;2.22;;;2.08;;
10637;SDS011;47007;49.252;8.904;2023-09-18T02:09:59;2.10;;;2.00;;
10637;SDS011;47007;49.252;8.904;2023-09-18T02:10:41;1.98;;;1.88;;
10637;SDS011;47007;49.252;8.904;2023-09-18T02:11:23;2.33;;;2.10;;
10637;SDS011;47007;49.252;8.904;2023-09-18T02:12:06;2.22;;;2.03;;
10637;SDS011;47007;49.252;8.904;2023-09-18T02:12:48;2.60;;;2.00;;
10637;SDS011;47007;49.252;8.904;2023-09-18T02:13:31;2.35;;;2.20;;
10637;SDS011;47007;49.252;8.904;2023-09-18T02:14:12;1.98;;;1.80;;
10637;SDS011;47007;49.252;8.904;2023-09-18T02:14:56;2.55;;;1.98;;
10637;SDS011;47007;49.252;8.904;2023-09-18T02:15:40;3.05;;;2.80;;
10637;SDS011;47007;49.252;8.904;2023-09-18T02:16:22;2.78;;;2.58;;
10637;SDS011;47007;49.252;8.904;2023-09-18T02:17:05;4.63;;;2.88;;
10637;SDS011;47007;49.252;8.904;2023-09-18T02:17:47;3.67;;;2.75;;
10637;SDS011;47007;49.252;8.904;2023-09-18T02:18:29;3.58;;;2.50;;
10637;SDS011;47007;49.252;8.904;2023-09-18T02:19:12;2.90;;;2.70;;
10637;SDS011;47007;49.252;8.904;2023-09-18T02:19:58;3.75;;;2.90;;
10637;SDS011;47007;49.252;8.904;2023-09-18T02:20:46;3.78;;;2.72;;
10637;SDS011;47007;49.252;8.904;2023-09-18T02:21:30;2.83;;;2.63;;
10637;SDS011;47007;49.252;8.904;2023-09-18T02:22:12;2.95;;;2.28;;
10637;SDS011;47007;49.252;8.904;2023-09-18T02:22:54;2.42;;;2.20;;
10637;SDS011;47007;49.252;8.904;2023-09-18T02:23:37;2.78;;;2.58;;
10637;SDS011;47007;49.252;8.904;2023-09-18T02:24:19;2.60;;;2.40;;
10637;SDS011;47007;49.252;8.904;2023-09-18T02:25:00;2.30;;;2.20;;
10637;SDS011;47007;49.252;8.904;2023-09-18T02:25:42;2.40;;;2.20;;
10637;SDS011;47007;49.252;8.904;2023-09-18T02:26:24;2.63;;;2.47;;
10637;SDS011;47007;49.252;8.904;2023-09-18T02:27:06;2.70;;;2.50;;
10637;SDS011;47007;49.252;8.904;2023-09-18T02:27:48;2.42;;;2.22;;
10637;SDS011;47007;49.252;8.904;2023-09-18T02:28:31;2.53;;;2.33;;
10637;SDS011;47007;49.252;8.904;2023-09-18T02:29:13;3.25;;;2.25;;
10637;SDS011;47007;49.252;8.904;2023-09-18T02:29:56;2.35;;;2.20;;
10637;SDS011;47007;49.252;8.904;2023-09-18T02:30:38;4.57;;;2.50;;
10637;SDS011;47007;49.252;8.904;2023-09-18T02:31:20;2.75;;;2.55;;
10637;SDS011;47007;49.252;8.904;2023-09-18T02:32:02;2.80;;;2.53;;
10637;SDS011;47007;49.252;8.904;2023-09-18T02:32:45;2.67;;;2.45;;
10637;SDS011;47007;49.252;8.904;2023-09-18T02:33:27;2.53;;;2.42;;
10637;SDS011;47007;49.252;8.904;2023-09-18T02:34:09;2.75;;;2.55;;
10637;SDS011;47007;49.252;8.904;2023-09-18T02:34:52;2.72;;;2.42;;
10637;SDS011;47007;49.252;8.904;2023-09-18T02:35:34;3.13;;;2.80;;
10637;SDS011;47007;49.252;8.904;2023-09-18T02:36:16;3.15;;;2.80;;
10637;SDS011;47007;49.252;8.904;2023-09-18T02:36:58;2.88;;;2.67;;
10637;SDS011;47007;49.252;8.904;2023-09-18T02:37:40;4.30;;;2.55;;
10637;SDS011;47007;49.252;8.904;2023-09-18T02:38:22;2.60;;;2.50;;
10637;SDS011;47007;49.252;8.904;2023-09-18T02:39:04;4.47;;;2.60;;
10637;SDS011;47007;49.252;8.904;2023-09-18T02:39:46;2.80;;;2.60;;
10637;SDS011;47007;49.252;8.904;2023-09-18T02:40:28;5.65;;;2.75;;
10637;SDS011;47007;49.252;8.904;2023-09-18T02:41:10;2.40;;;2.30;;
10637;SDS011;47007;49.252;8.904;2023-09-18T02:41:52;2.97;;;2.75;;
10637;SDS011;47007;49.252;8.904;2023-09-18T02:42:34;2.60;;;2.38;;
10637;SDS011;47007;49.252;8.904;2023-09-18T02:43:16;2.72;;;2.50;;
10637;SDS011;47007;49.252;8.904;2023-09-18T02:43:57;3.55;;;2.70;;
10637;SDS011;47007;49.252;8.904;2023-09-18T02:44:39;3.00;;;2.80;;
10637;SDS011;47007;49.252;8.904;2023-09-18T02:45:21;3.42;;;2.80;;
10637;SDS011;47007;49.252;8.904;2023-09-18T02:46:04;2.97;;;2.78;;
10637;SDS011;47007;49.252;8.904;2023-09-18T02:46:49;2.75;;;2.65;;
10637;SDS011;47007;49.252;8.904;2023-09-18T02:47:31;2.58;;;2.38;;
10637;SDS011;47007;49.252;8.904;2023-09-18T02:48:16;2.72;;;2.47;;
10637;SDS011;47007;49.252;8.904;2023-09-18T02:48:58;4.13;;;2.53;;
10637;SDS011;47007;49.252;8.904;2023-09-18T02:49:40;2.70;;;2.50;;
10637;SDS011;47007;49.252;8.904;2023-09-18T02:50:22;3.10;;;2.90;;
10637;SDS011;47007;49.252;8.904;2023-09-18T02:51:04;4.85;;;2.88;;
10637;SDS011;47007;49.252;8.904;2023-09-18T02:51:47;3.40;;;3.10;;
10637;SDS011;47007;49.252;8.904;2023-09-18T02:52:30;3.17;;;2.97;;
10637;SDS011;47007;49.252;8.904;2023-09-18T02:53:19;3.17;;;2.90;;
10637;SDS011;47007;49.252;8.904;2023-09-18T02:54:02;3.10;;;2.70;;
10637;SDS011;47007;49.252;8.904;2023-09-18T02:54:44;3.20;;;3.00;;
10637;SDS011;47007;49.252;8.904;2023-09-18T02:55:28;3.20;;;2.70;;
10637;SDS011;47007;49.252;8.904;2023-09-18T02:56:11;3.00;;;2.50;;
10637;SDS011;47007;49.252;8.904;2023-09-18T02:56:53;3.40;;;3.08;;
10637;SDS011;47007;49.252;8.904;2023-09-18T02:57:34;3.30;;;3.10;;
10637;SDS011;47007;49.252;8.904;2023-09-18T02:58:17;4.00;;;3.20;;
10637;SDS011;47007;49.252;8.904;2023-09-18T02:59:00;4.55;;;3.63;;
10637;SDS011;47007;49.252;8.904;2023-09-18T02:59:42;4.32;;;2.75;;
10637;SDS011;47007;49.252;8.904;2023-09-18T03:00:24;3.10;;;2.90;;
10637;SDS011;47007;49.252;8.904;2023-09-18T03:01:23;3.22;;;2.92;;
10637;SDS011;47007;49.252;8.904;2023-09-18T03:02:06;2.97;;;2.78;;
10637;SDS011;47007;49.252;8.904;2023-09-18T03:02:48;3.17;;;2.95;;
10637;SDS011;47007;49.252;8.904;2023-09-18T03:03:30;3.25;;;3.05;;
10637;SDS011;47007;49.252;8.904;2023-09-18T03:04:13;3.30;;;2.90;;
10637;SDS011;47007;49.252;8.904;2023-09-18T03:04:55;3.80;;;3.20;;
10637;SDS011;47007;49.252;8.904;2023-09-18T03:05:38;4.13;;;3.40;;
10637;SDS011;47007;49.252;8.904;2023-09-18T03:06:21;3.55;;;3.25;;
10637;SDS011;47007;49.252;8.904;2023-09-18T03:07:03;2.97;;;2.72;;
10637;SDS011;47007;49.252;8.904;2023-09-18T03:07:47;3.47;;;3.17;;
10637;SDS011;47007;49.252;8.904;2023-09-18T03:08:29;3.30;;;2.78;;
10637;SDS011;47007;49.252;8.904;2023-09-18T03:09:12;3.20;;;3.00;;
10637;SDS011;47007;49.252;8.904;2023-09-18T03:09:54;3.08;;;2.88;;
10637;SDS011;47007;49.252;8.904;2023-09-18T03:10:37;3.30;;;3.00;;
10637;SDS011;47007;49.252;8.904;2023-09-18T03:11:22;3.35;;;3.05;;
10637;SDS011;47007;49.252;8.904;2023-09-18T03:12:08;5.25;;;3.03;;
10637;SDS011;47007;49.252;8.904;2023-09-18T03:12:50;4.70;;;3.45;;
10637;SDS011;47007;49.252;8.904;2023-09-18T03:13:32;3.03;;;2.78;;
10637;SDS011;47007;49.252;8.904;2023-09-18T03:14:14;3.95;;;3.45;;
10637;SDS011;47007;49.252;8.904;2023-09-18T03:14:56;2.85;;;2.65;;
10637;SDS011;47007;49.252;8.904;2023-09-18T03:15:38;3.92;;;3.17;;
10637;SDS011;47007;49.252;8.904;2023-09-18T03:16:20;3.33;;;3.08;;
10637;SDS011;47007;49.252;8.904;2023-09-18T03:17:01;3.42;;;3.22;;
10637;SDS011;47007;49.252;8.904;2023-09-18T03:17:43;4.95;;;3.40;;
10637;SDS011;47007;49.252;8.904;2023-09-18T03:18:26;3.13;;;2.92;;
10637;SDS011;47007;49.252;8.904;2023-09-18T03:19:07;3.58;;;3.20;;
10637;SDS011;47007;49.252;8.904;2023-09-18T03:19:49;3.20;;;2.90;;
10637;SDS011;47007;49.252;8.904;2023-09-18T03:20:31;4.07;;;3.13;;
10637;SDS011;47007;49.252;8.904;2023-09-18T03:21:14;2.83;;;2.63;;
10637;SDS011;47007;49.252;8.904;2023-09-18T03:21:56;3.08;;;2.88;;
10637;SDS011;47007;49.252;8.904;2023-09-18T03:22:38;2.90;;;2.70;;
10637;SDS011;47007;49.252;8.904;2023-09-18T03:23:20;3.42;;;3.22;;
10637;SDS011;47007;49.252;8.904;2023-09-18T03:24:02;3.33;;;2.97;;
10637;SDS011;47007;49.252;8.904;2023-09-18T03:24:44;3.10;;;2.90;;
10637;SDS011;47007;49.252;8.904;2023-09-18T03:25:26;4.95;;;2.92;;
10637;SDS011;47007;49.252;8.904;2023-09-18T03:26:09;3.53;;;3.22;;
10637;SDS011;47007;49.252;8.904;2023-09-18T03:26:51;4.15;;;3.28;;
10637;SDS011;47007;49.252;8.904;2023-09-18T03:27:33;3.33;;;3.00;;
10637;SDS011;47007;49.252;8.904;2023-09-18T03:28:15;3.00;;;2.80;;
10637;SDS011;47007;49.252;8.904;2023-09-18T03:28:56;2.80;;;2.65;;
10637;SDS011;47007;49.252;8.904;2023-09-18T03:29:38;2.60;;;2.40;;
10637;SDS011;47007;49.252;8.904;2023-09-18T03:30:21;3.08;;;2.70;;
10637;SDS011;47007;49.252;8.904;2023-09-18T03:31:07;3.22;;;2.92;;
10637;SDS011;47007;49.252;8.904;2023-09-18T03:31:49;4.35;;;3.35;;
10637;SDS011;47007;49.252;8.904;2023-09-18T03:32:31;3.25;;;2.85;;
10637;SDS011;47007;49.252;8.904;2023-09-18T03:33:13;4.60;;;3.20;;
10637;SDS011;47007;49.252;8.904;2023-09-18T03:33:55;5.90;;;3.75;;
10637;SDS011;47007;49.252;8.904;2023-09-18T03:34:38;3.95;;;3.58;;
10637;SDS011;47007;49.252;8.904;2023-09-18T03:35:20;4.05;;;3.65;;
10637;SDS011;47007;49.252;8.904;2023-09-18T03:36:03;3.72;;;3.42;;
10637;SDS011;47007;49.252;8.904;2023-09-18T03:36:48;4.15;;;3.45;;
10637;SDS011;47007;49.252;8.904;2023-09-18T03:37:30;3.33;;;3.13;;
10637;SDS011;47007;49.252;8.904;2023-09-18T03:38:12;4.28;;;3.50;;
10637;SDS011;47007;49.252;8.904;2023-09-18T03:38:54;3.40;;;3.10;;
10637;SDS011;47007;49.252;8.904;2023-09-18T03:39:36;3.22;;;3.03;;
10637;SDS011;47007;49.252;8.904;2023-09-18T03:40:19;2.83;;;2.63;;
10637;SDS011;47007;49.252;8.904;2023-09-18T03:41:01;3.92;;;3.53;;
10637;SDS011;47007;49.252;8.904;2023-09-18T03:41:43;6.82;;;3.95;;
10637;SDS011;47007;49.252;8.904;2023-09-18T03:42:25;4.22;;;3.40;;
10637;SDS011;47007;49.252;8.904;2023-09-18T03:43:07;4.25;;;3.28;;
10637;SDS011;47007;49.252;8.904;2023-09-18T03:43:50;3.80;;;3.50;;
10637;SDS011;47007;49.252;8.904;2023-09-18T03:44:32;3.38;;;3.17;;
10637;SDS011;47007;49.252;8.904;2023-09-18T03:45:14;7.43;;;3.40;;
10637;SDS011;47007;49.252;8.904;2023-09-18T03:46:06;4.03;;;3.58;;
10637;SDS011;47007;49.252;8.904;2023-09-18T03:46:56;3.25;;;3.05;;
10637;SDS011;47007;49.252;8.904;2023-09-18T03:47:39;3.50;;;3.22;;
10637;SDS011;47007;49.252;8.904;2023-09-18T03:48:22;3.70;;;3.40;;
10637;SDS011;47007;49.252;8.904;2023-09-18T03:49:04;3.83;;;3.28;;
10637;SDS011;47007;49.252;8.904;2023-09-18T03:49:50;3.78;;;3.47;;
10637;SDS011;47007;49.252;8.904;2023-09-18T03:50:32;3.30;;;3.10;;
10637;SDS011;47007;49.252;8.904;2023-09-18T03:51:14;3.47;;;3.28;;
10637;SDS011;47007;49.252;8.904;2023-09-18T03:51:57;3.78;;;3.17;;
10637;SDS011;47007;49.252;8.904;2023-09-18T03:52:39;6.68;;;3.50;;
10637;SDS011;47007;49.252;8.904;2023-09-18T03:53:22;3.35;;;3.05;;
10637;SDS011;47007;49.252;8.904;2023-09-18T03:54:04;2.95;;;2.75;;
10637;SDS011;47007;49.252;8.904;2023-09-18T03:54:45;3.10;;;2.90;;
10637;SDS011;47007;49.252;8.904;2023-09-18T03:55:28;2.90;;;2.70;;
10637;SDS011;47007;49.252;8.904;2023-09-18T03:56:10;3.10;;;2.90;;
10637;SDS011;47007;49.252;8.904;2023-09-18T03:56:52;3.55;;;3.25;;
10637;SDS011;47007;49.252;8.904;2023-09-18T03:57:34;3.38;;;3.10;;
10637;SDS011;47007;49.252;8.904;2023-09-18T03:58:17;3.30;;;3.10;;
10637;SDS011;47007;49.252;8.904;2023-09-18T03:58:59;3.63;;;3.30;;
10637;SDS011;47007;49.252;8.904;2023-09-18T03:59:42;3.22;;;2.95;;
10637;SDS011;47007;49.252;8.904;2023-09-18T04:00:24;3.42;;;3.00;;
10637;SDS011;47007;49.252;8.904;2023-09-18T04:01:07;3.13;;;2.92;;
10637;SDS011;47007;49.252;8.904;2023-09-18T04:01:49;3.28;;;2.97;;
10637;SDS011;47007;49.252;8.904;2023-09-18T04:02:31;3.30;;;3.00;;
10637;SDS011;47007;49.252;8.904;2023-09-18T04:03:13;3.08;;;2.88;;
10637;SDS011;47007;49.252;8.904;2023-09-18T04:03:55;3.15;;;2.95;;
10637;SDS011;47007;49.252;8.904;2023-09-18T04:04:37;3.30;;;3.00;;
10637;SDS011;47007;49.252;8.904;2023-09-18T04:05:19;2.85;;;2.65;;
10637;SDS011;47007;49.252;8.904;2023-09-18T04:06:01;4.35;;;3.92;;
10637;SDS011;47007;49.252;8.904;2023-09-18T04:06:44;3.65;;;3.35;;
10637;SDS011;47007;49.252;8.904;2023-09-18T04:07:27;3.20;;;3.00;;
10637;SDS011;47007;49.252;8.904;2023-09-18T04:08:09;3.50;;;2.88;;
10637;SDS011;47007;49.252;8.904;2023-09-18T04:08:52;4.97;;;3.42;;
10637;SDS011;47007;49.252;8.904;2023-09-18T04:09:35;3.03;;;2.75;;
10637;SDS011;47007;49.252;8.904;2023-09-18T04:10:17;5.00;;;2.97;;
10637;SDS011;47007;49.252;8.904;2023-09-18T04:11:05;5.85;;;3.28;;
10637;SDS011;47007;49.252;8.904;2023-09-18T04:11:51;6.25;;;2.72;;
10637;SDS011;47007;49.252;8.904;2023-09-18T04:12:33;5.35;;;3.08;;
10637;SDS011;47007;49.252;8.904;2023-09-18T04:13:15;7.28;;;2.92;;
10637;SDS011;47007;49.252;8.904;2023-09-18T04:13:58;7.47;;;2.83;;
10637;SDS011;47007;49.252;8.904;2023-09-18T04:14:40;8.65;;;2.95;;
10637;SDS011;47007;49.252;8.904;2023-09-18T04:15:22;8.52;;;3.10;;
10637;SDS011;47007;49.252;8.904;2023-09-18T04:16:05;12.80;;;3.92;;
10637;SDS011;47007;49.252;8.904;2023-09-18T04:16:47;4.50;;;2.70;;
10637;SDS011;47007;49.252;8.904;2023-09-18T04:17:31;8.48;;;5.40;;
10637;SDS011;47007;49.252;8.904;2023-09-18T04:18:13;12.27;;;3.97;;
10637;SDS011;47007;49.252;8.904;2023-09-18T04:18:55;11.05;;;5.72;;
10637;SDS011;47007;49.252;8.904;2023-09-18T04:19:37;7.72;;;3.80;;
10637;SDS011;47007;49.252;8.904;2023-09-18T04:20:19;6.30;;;3.90;;
10637;SDS011;47007;49.252;8.904;2023-09-18T04:21:01;10.65;;;3.30;;
10637;SDS011;47007;49.252;8.904;2023-09-18T04:21:43;4.97;;;3.03;;
10637;SDS011;47007;49.252;8.904;2023-09-18T04:22:25;8.48;;;2.92;;
10637;SDS011;47007;49.252;8.904;2023-09-18T04:23:17;10.25;;;3.35;;